Alpha, Michigan
Current Conditions -  °F | °C
As of 9:54 PM on Saturday 20 Dec 2014 (Local Time) from KIMT Reporting Station
Haze Haze  
Wind Chill: -6°   Ceiling: 2900
Heat Index: -3°   Visibility: 6mi
Dew Point: -5°   Wind: 6mph
Humidity: 85%   Direction: 150°SSE
Pressure: 30.16"   Gusts: NA
Location:  46.04°N, 88.38°W
Report Text: KIMT 210354Z AUTO 15005KT 6SM BR FEW020 OVC029 M03/M05 A3016 RMK AO2 SLP232 T10281050
Loading
Personal Weather Stations






























Interactive Weather Map New forecast layout! Learn more

10-Day Weather Forecast

Advertisements
Track Severe Weather on mobile